sensor_id;sensor_type;location;lat;lon;timestamp;temperature;humidity
4699;DHT22;33708;49.466;11.176;2023-01-06T00:00:30;9.70;99.90
4699;DHT22;33708;49.466;11.176;2023-01-06T00:02:56;9.70;99.90
4699;DHT22;33708;49.466;11.176;2023-01-06T00:05:21;9.70;99.90
4699;DHT22;33708;49.466;11.176;2023-01-06T00:07:48;9.70;99.90
4699;DHT22;33708;49.466;11.176;2023-01-06T00:10:14;9.70;99.90
4699;DHT22;33708;49.466;11.176;2023-01-06T00:12:43;9.60;99.90
4699;DHT22;33708;49.466;11.176;2023-01-06T00:15:09;9.70;99.90
4699;DHT22;33708;49.466;11.176;2023-01-06T00:17:35;9.70;99.90
4699;DHT22;33708;49.466;11.176;2023-01-06T00:20:00;9.80;99.90
4699;DHT22;33708;49.466;11.176;2023-01-06T00:22:26;9.80;99.90
4699;DHT22;33708;49.466;11.176;2023-01-06T00:24:52;9.80;99.90
4699;DHT22;33708;49.466;11.176;2023-01-06T00:27:17;9.80;99.90
4699;DHT22;33708;49.466;11.176;2023-01-06T00:29:43;9.90;99.90
4699;DHT22;33708;49.466;11.176;2023-01-06T00:32:08;9.80;99.90
4699;DHT22;33708;49.466;11.176;2023-01-06T00:34:34;9.80;99.90
4699;DHT22;33708;49.466;11.176;2023-01-06T00:37:00;9.70;99.90
4699;DHT22;33708;49.466;11.176;2023-01-06T00:39:25;9.60;99.90
4699;DHT22;33708;49.466;11.176;2023-01-06T00:41:51;9.80;99.90
4699;DHT22;33708;49.466;11.176;2023-01-06T00:44:34;9.70;99.90
4699;DHT22;33708;49.466;11.176;2023-01-06T00:47:01;9.70;99.90
4699;DHT22;33708;49.466;11.176;2023-01-06T00:49:27;9.80;99.90
4699;DHT22;33708;49.466;11.176;2023-01-06T00:51:53;9.90;99.90
4699;DHT22;33708;49.466;11.176;2023-01-06T00:54:19;9.90;99.90
4699;DHT22;33708;49.466;11.176;2023-01-06T00:56:47;9.80;99.90
4699;DHT22;33708;49.466;11.176;2023-01-06T00:59:14;9.80;99.90
4699;DHT22;33708;49.466;11.176;2023-01-06T01:01:41;9.80;99.90
4699;DHT22;33708;49.466;11.176;2023-01-06T01:04:08;9.80;99.90
4699;DHT22;33708;49.466;11.176;2023-01-06T01:06:34;9.70;99.90
4699;DHT22;33708;49.466;11.176;2023-01-06T01:09:01;9.80;99.90
4699;DHT22;33708;49.466;11.176;2023-01-06T01:11:28;9.90;99.90
4699;DHT22;33708;49.466;11.176;2023-01-06T01:14:14;9.90;99.90
4699;DHT22;33708;49.466;11.176;2023-01-06T01:16:40;9.80;99.90
4699;DHT22;33708;49.466;11.176;2023-01-06T01:19:06;9.80;99.90
4699;DHT22;33708;49.466;11.176;2023-01-06T01:21:31;9.80;99.90
4699;DHT22;33708;49.466;11.176;2023-01-06T01:23:57;9.60;99.90
4699;DHT22;33708;49.466;11.176;2023-01-06T01:26:23;9.60;99.90
4699;DHT22;33708;49.466;11.176;2023-01-06T01:28:49;9.60;99.90
4699;DHT22;33708;49.466;11.176;2023-01-06T01:31:14;9.60;99.90
4699;DHT22;33708;49.466;11.176;2023-01-06T01:33:40;9.60;99.90
4699;DHT22;33708;49.466;11.176;2023-01-06T01:36:12;9.70;99.90
4699;DHT22;33708;49.466;11.176;2023-01-06T01:38:38;9.70;99.90
4699;DHT22;33708;49.466;11.176;2023-01-06T01:41:04;9.70;99.90
4699;DHT22;33708;49.466;11.176;2023-01-06T01:46:52;9.70;99.90
4699;DHT22;33708;49.466;11.176;2023-01-06T01:49:23;9.80;99.90
4699;DHT22;33708;49.466;11.176;2023-01-06T01:51:52;9.70;99.90
4699;DHT22;33708;49.466;11.176;2023-01-06T01:54:21;9.60;99.90
4699;DHT22;33708;49.466;11.176;2023-01-06T01:56:54;9.70;99.90
4699;DHT22;33708;49.466;11.176;2023-01-06T01:59:24;9.70;99.90
4699;DHT22;33708;49.466;11.176;2023-01-06T02:01:50;9.50;99.90
4699;DHT22;33708;49.466;11.176;2023-01-06T02:04:17;9.50;99.90
4699;DHT22;33708;49.466;11.176;2023-01-06T02:06:43;9.40;99.90
4699;DHT22;33708;49.466;11.176;2023-01-06T02:09:25;9.40;99.90
4699;DHT22;33708;49.466;11.176;2023-01-06T02:11:52;9.40;99.90
4699;DHT22;33708;49.466;11.176;2023-01-06T02:14:20;9.50;99.90
4699;DHT22;33708;49.466;11.176;2023-01-06T02:37:24;9.80;99.90
4699;DHT22;33708;49.466;11.176;2023-01-06T02:45:34;9.90;99.90
4699;DHT22;33708;49.466;11.176;2023-01-06T02:53:32;9.80;99.90
4699;DHT22;33708;49.466;11.176;2023-01-06T02:56:01;9.90;99.90
4699;DHT22;33708;49.466;11.176;2023-01-06T02:58:56;9.90;99.90
4699;DHT22;33708;49.466;11.176;2023-01-06T03:01:34;9.90;99.90
4699;DHT22;33708;49.466;11.176;2023-01-06T03:04:05;9.90;99.90
4699;DHT22;33708;49.466;11.176;2023-01-06T03:06:33;9.90;99.90
4699;DHT22;33708;49.466;11.176;2023-01-06T03:09:00;10.00;99.90
4699;DHT22;33708;49.466;11.176;2023-01-06T03:11:30;10.10;99.90
4699;DHT22;33708;49.466;11.176;2023-01-06T03:14:11;10.10;99.90
4699;DHT22;33708;49.466;11.176;2023-01-06T03:16:38;10.20;99.90
4699;DHT22;33708;49.466;11.176;2023-01-06T03:19:04;10.20;99.90
4699;DHT22;33708;49.466;11.176;2023-01-06T03:21:33;10.10;99.90
4699;DHT22;33708;49.466;11.176;2023-01-06T03:24:00;10.10;99.90
4699;DHT22;33708;49.466;11.176;2023-01-06T03:26:25;10.10;99.90
4699;DHT22;33708;49.466;11.176;2023-01-06T03:28:51;10.00;99.90
4699;DHT22;33708;49.466;11.176;2023-01-06T03:31:33;10.00;99.90
4699;DHT22;33708;49.466;11.176;2023-01-06T03:45:17;10.00;99.90
4699;DHT22;33708;49.466;11.176;2023-01-06T03:47:51;10.10;99.90
4699;DHT22;33708;49.466;11.176;2023-01-06T03:50:22;10.20;99.90
4699;DHT22;33708;49.466;11.176;2023-01-06T03:52:57;10.20;99.90
4699;DHT22;33708;49.466;11.176;2023-01-06T03:55:29;10.20;99.90
4699;DHT22;33708;49.466;11.176;2023-01-06T03:57:57;10.20;99.90
4699;DHT22;33708;49.466;11.176;2023-01-06T04:00:28;10.10;99.90
4699;DHT22;33708;49.466;11.176;2023-01-06T04:02:55;10.20;99.90
4699;DHT22;33708;49.466;11.176;2023-01-06T04:05:23;10.10;99.90
4699;DHT22;33708;49.466;11.176;2023-01-06T04:07:49;10.10;99.90
4699;DHT22;33708;49.466;11.176;2023-01-06T04:10:18;10.20;99.90
4699;DHT22;33708;49.466;11.176;2023-01-06T04:12:44;10.20;99.90
4699;DHT22;33708;49.466;11.176;2023-01-06T04:15:12;10.30;99.90
4699;DHT22;33708;49.466;11.176;2023-01-06T04:17:39;10.30;99.90
4699;DHT22;33708;49.466;11.176;2023-01-06T04:20:06;10.30;99.90
4699;DHT22;33708;49.466;11.176;2023-01-06T04:22:32;10.10;99.90
4699;DHT22;33708;49.466;11.176;2023-01-06T04:24:58;10.00;99.90
4699;DHT22;33708;49.466;11.176;2023-01-06T04:27:23;10.00;99.90
4699;DHT22;33708;49.466;11.176;2023-01-06T04:29:49;10.00;99.90
4699;DHT22;33708;49.466;11.176;2023-01-06T04:32:14;10.00;99.90
4699;DHT22;33708;49.466;11.176;2023-01-06T04:34:40;9.90;99.90
4699;DHT22;33708;49.466;11.176;2023-01-06T04:37:06;10.00;99.90
4699;DHT22;33708;49.466;11.176;2023-01-06T04:39:31;10.10;99.90
4699;DHT22;33708;49.466;11.176;2023-01-06T04:41:57;10.20;99.90
4699;DHT22;33708;49.466;11.176;2023-01-06T04:44:22;10.30;99.90
4699;DHT22;33708;49.466;11.176;2023-01-06T04:46:48;10.30;99.90
4699;DHT22;33708;49.466;11.176;2023-01-06T04:49:13;10.30;99.90
4699;DHT22;33708;49.466;11.176;2023-01-06T04:51:39;10.30;99.90
4699;DHT22;33708;49.466;11.176;2023-01-06T04:54:04;10.30;99.90
4699;DHT22;33708;49.466;11.176;2023-01-06T04:56:30;10.20;99.90
4699;DHT22;33708;49.466;11.176;2023-01-06T04:58:56;10.30;99.90
4699;DHT22;33708;49.466;11.176;2023-01-06T05:01:23;10.20;99.90
4699;DHT22;33708;49.466;11.176;2023-01-06T05:03:49;10.30;99.90
4699;DHT22;33708;49.466;11.176;2023-01-06T05:06:15;10.30;99.90
4699;DHT22;33708;49.466;11.176;2023-01-06T05:08:41;10.40;99.90
4699;DHT22;33708;49.466;11.176;2023-01-06T05:11:14;10.30;99.90
4699;DHT22;33708;49.466;11.176;2023-01-06T05:13:40;10.30;99.90
4699;DHT22;33708;49.466;11.176;2023-01-06T05:16:11;10.30;99.90
4699;DHT22;33708;49.466;11.176;2023-01-06T05:18:38;10.30;99.90
4699;DHT22;33708;49.466;11.176;2023-01-06T05:21:04;10.30;99.90
4699;DHT22;33708;49.466;11.176;2023-01-06T05:23:30;10.30;99.90
4699;DHT22;33708;49.466;11.176;2023-01-06T05:25:55;10.30;99.90
4699;DHT22;33708;49.466;11.176;2023-01-06T05:28:21;10.30;99.90
4699;DHT22;33708;49.466;11.176;2023-01-06T05:30:47;10.20;99.90
4699;DHT22;33708;49.466;11.176;2023-01-06T05:33:13;10.10;99.90
4699;DHT22;33708;49.466;11.176;2023-01-06T05:35:38;10.10;99.90
4699;DHT22;33708;49.466;11.176;2023-01-06T05:38:04;10.10;99.90
4699;DHT22;33708;49.466;11.176;2023-01-06T05:40:30;10.00;99.90
4699;DHT22;33708;49.466;11.176;2023-01-06T05:42:56;10.00;99.90
4699;DHT22;33708;49.466;11.176;2023-01-06T05:45:22;10.00;99.90
4699;DHT22;33708;49.466;11.176;2023-01-06T05:47:48;9.90;99.90
4699;DHT22;33708;49.466;11.176;2023-01-06T05:50:14;9.90;99.90
4699;DHT22;33708;49.466;11.176;2023-01-06T05:52:39;9.90;99.90
4699;DHT22;33708;49.466;11.176;2023-01-06T05:55:05;9.90;99.90
4699;DHT22;33708;49.466;11.176;2023-01-06T05:57:32;10.00;99.90
4699;DHT22;33708;49.466;11.176;2023-01-06T05:59:58;10.00;99.90
4699;DHT22;33708;49.466;11.176;2023-01-06T06:02:23;10.10;99.90
4699;DHT22;33708;49.466;11.176;2023-01-06T06:04:49;10.10;99.90
4699;DHT22;33708;49.466;11.176;2023-01-06T06:07:15;10.20;99.90
4699;DHT22;33708;49.466;11.176;2023-01-06T06:09:41;10.20;99.90
4699;DHT22;33708;49.466;11.176;2023-01-06T06:12:06;10.30;99.90
4699;DHT22;33708;49.466;11.176;2023-01-06T06:14:32;10.30;99.90
4699;DHT22;33708;49.466;11.176;2023-01-06T06:16:58;10.30;99.90
4699;DHT22;33708;49.466;11.176;2023-01-06T06:19:23;10.20;99.90
4699;DHT22;33708;49.466;11.176;2023-01-06T06:21:49;10.10;99.90
4699;DHT22;33708;49.466;11.176;2023-01-06T06:24:15;10.20;99.90
4699;DHT22;33708;49.466;11.176;2023-01-06T06:26:40;10.10;99.90
4699;DHT22;33708;49.466;11.176;2023-01-06T06:29:06;10.20;99.90
4699;DHT22;33708;49.466;11.176;2023-01-06T06:31:32;10.20;99.90
4699;DHT22;33708;49.466;11.176;2023-01-06T06:34:00;10.20;99.90
4699;DHT22;33708;49.466;11.176;2023-01-06T06:36:27;10.10;99.90
4699;DHT22;33708;49.466;11.176;2023-01-06T06:38:54;10.10;99.90
4699;DHT22;33708;49.466;11.176;2023-01-06T06:41:20;10.10;99.90
4699;DHT22;33708;49.466;11.176;2023-01-06T06:43:50;10.10;99.90
4699;DHT22;33708;49.466;11.176;2023-01-06T06:46:17;10.10;99.90
4699;DHT22;33708;49.466;11.176;2023-01-06T06:48:43;10.10;99.90
4699;DHT22;33708;49.466;11.176;2023-01-06T06:51:11;10.10;99.90
4699;DHT22;33708;49.466;11.176;2023-01-06T06:53:37;10.10;99.90
4699;DHT22;33708;49.466;11.176;2023-01-06T06:56:06;10.00;99.90
4699;DHT22;33708;49.466;11.176;2023-01-06T06:58:33;10.00;99.90
4699;DHT22;33708;49.466;11.176;2023-01-06T07:01:03;10.00;99.90
4699;DHT22;33708;49.466;11.176;2023-01-06T07:03:28;10.00;99.90
4699;DHT22;33708;49.466;11.176;2023-01-06T07:05:54;10.10;99.90
4699;DHT22;33708;49.466;11.176;2023-01-06T07:08:20;10.20;99.90
4699;DHT22;33708;49.466;11.176;2023-01-06T07:10:46;10.20;99.90
4699;DHT22;33708;49.466;11.176;2023-01-06T07:13:11;10.20;99.90
4699;DHT22;33708;49.466;11.176;2023-01-06T07:15:37;10.20;99.90
4699;DHT22;33708;49.466;11.176;2023-01-06T07:18:04;10.10;99.90
4699;DHT22;33708;49.466;11.176;2023-01-06T07:20:31;10.20;99.90
4699;DHT22;33708;49.466;11.176;2023-01-06T07:22:57;10.20;99.90
4699;DHT22;33708;49.466;11.176;2023-01-06T07:25:23;10.20;99.90
4699;DHT22;33708;49.466;11.176;2023-01-06T07:27:57;10.20;99.90
4699;DHT22;33708;49.466;11.176;2023-01-06T07:30:24;10.20;99.90
4699;DHT22;33708;49.466;11.176;2023-01-06T07:32:50;10.20;99.90
4699;DHT22;33708;49.466;11.176;2023-01-06T07:35:16;10.30;99.90
4699;DHT22;33708;49.466;11.176;2023-01-06T07:37:42;10.30;99.90
4699;DHT22;33708;49.466;11.176;2023-01-06T07:40:08;10.40;99.90
4699;DHT22;33708;49.466;11.176;2023-01-06T07:42:34;10.30;99.90
4699;DHT22;33708;49.466;11.176;2023-01-06T07:45:01;10.30;99.90
4699;DHT22;33708;49.466;11.176;2023-01-06T07:47:26;10.30;99.90
4699;DHT22;33708;49.466;11.176;2023-01-06T07:49:52;10.40;99.90
4699;DHT22;33708;49.466;11.176;2023-01-06T07:52:18;10.40;99.90
4699;DHT22;33708;49.466;11.176;2023-01-06T07:54:43;10.40;99.90
4699;DHT22;33708;49.466;11.176;2023-01-06T07:57:09;10.40;99.90
4699;DHT22;33708;49.466;11.176;2023-01-06T07:59:37;10.40;99.90
4699;DHT22;33708;49.466;11.176;2023-01-06T08:02:03;10.40;99.90
4699;DHT22;33708;49.466;11.176;2023-01-06T08:04:28;10.40;99.90
4699;DHT22;33708;49.466;11.176;2023-01-06T08:06:54;10.50;99.90
4699;DHT22;33708;49.466;11.176;2023-01-06T08:09:20;10.60;99.90
4699;DHT22;33708;49.466;11.176;2023-01-06T08:11:45;10.60;99.90
4699;DHT22;33708;49.466;11.176;2023-01-06T08:14:11;10.70;99.90
4699;DHT22;33708;49.466;11.176;2023-01-06T08:16:38;10.80;99.90
4699;DHT22;33708;49.466;11.176;2023-01-06T08:19:04;10.80;99.90
4699;DHT22;33708;49.466;11.176;2023-01-06T08:21:29;10.80;99.90
4699;DHT22;33708;49.466;11.176;2023-01-06T08:23:55;10.80;99.90
4699;DHT22;33708;49.466;11.176;2023-01-06T08:26:21;10.80;99.90
4699;DHT22;33708;49.466;11.176;2023-01-06T08:28:46;10.90;99.90
4699;DHT22;33708;49.466;11.176;2023-01-06T08:31:15;11.00;99.90
4699;DHT22;33708;49.466;11.176;2023-01-06T08:33:41;11.00;99.90
4699;DHT22;33708;49.466;11.176;2023-01-06T08:36:09;11.10;99.90
4699;DHT22;33708;49.466;11.176;2023-01-06T08:38:36;11.20;99.90
4699;DHT22;33708;49.466;11.176;2023-01-06T08:41:02;11.30;99.90
4699;DHT22;33708;49.466;11.176;2023-01-06T08:43:28;11.40;99.90
4699;DHT22;33708;49.466;11.176;2023-01-06T08:46:00;11.50;99.90
4699;DHT22;33708;49.466;11.176;2023-01-06T08:48:27;11.50;99.90
4699;DHT22;33708;49.466;11.176;2023-01-06T08:50:53;11.50;99.90
4699;DHT22;33708;49.466;11.176;2023-01-06T08:53:19;11.50;99.90
4699;DHT22;33708;49.466;11.176;2023-01-06T08:55:44;11.40;99.90
4699;DHT22;33708;49.466;11.176;2023-01-06T08:58:10;11.60;99.90
4699;DHT22;33708;49.466;11.176;2023-01-06T09:00:38;11.70;99.90
4699;DHT22;33708;49.466;11.176;2023-01-06T09:03:04;11.80;99.90
4699;DHT22;33708;49.466;11.176;2023-01-06T09:05:29;11.90;99.90
4699;DHT22;33708;49.466;11.176;2023-01-06T09:07:55;11.80;99.90
4699;DHT22;33708;49.466;11.176;2023-01-06T09:10:20;11.80;99.90
4699;DHT22;33708;49.466;11.176;2023-01-06T09:12:47;11.90;99.90
4699;DHT22;33708;49.466;11.176;2023-01-06T09:15:13;11.80;99.90
4699;DHT22;33708;49.466;11.176;2023-01-06T09:17:39;11.80;99.90
4699;DHT22;33708;49.466;11.176;2023-01-06T09:20:05;11.70;99.90
4699;DHT22;33708;49.466;11.176;2023-01-06T09:22:31;11.60;99.90
4699;DHT22;33708;49.466;11.176;2023-01-06T09:24:56;11.40;99.90
4699;DHT22;33708;49.466;11.176;2023-01-06T09:27:22;11.50;99.90
4699;DHT22;33708;49.466;11.176;2023-01-06T09:29:48;11.70;99.90
4699;DHT22;33708;49.466;11.176;2023-01-06T09:32:14;11.80;99.90
4699;DHT22;33708;49.466;11.176;2023-01-06T09:34:40;11.80;99.90
4699;DHT22;33708;49.466;11.176;2023-01-06T09:37:05;11.90;99.90
4699;DHT22;33708;49.466;11.176;2023-01-06T09:39:31;11.70;99.90
4699;DHT22;33708;49.466;11.176;2023-01-06T09:47:20;11.50;99.90
4699;DHT22;33708;49.466;11.176;2023-01-06T09:49:59;11.30;99.90
4699;DHT22;33708;49.466;11.176;2023-01-06T09:52:31;11.60;99.90
4699;DHT22;33708;49.466;11.176;2023-01-06T09:55:04;11.50;99.90
4699;DHT22;33708;49.466;11.176;2023-01-06T09:57:42;11.50;99.90
4699;DHT22;33708;49.466;11.176;2023-01-06T10:02:51;11.70;99.90
4699;DHT22;33708;49.466;11.176;2023-01-06T10:05:37;11.70;99.90
4699;DHT22;33708;49.466;11.176;2023-01-06T10:16:24;12.10;99.90
4699;DHT22;33708;49.466;11.176;2023-01-06T10:21:47;12.70;99.90
4699;DHT22;33708;49.466;11.176;2023-01-06T10:24:32;13.00;99.90
4699;DHT22;33708;49.466;11.176;2023-01-06T10:27:30;12.90;99.90
4699;DHT22;33708;49.466;11.176;2023-01-06T10:29:59;12.50;99.90
4699;DHT22;33708;49.466;11.176;2023-01-06T10:32:28;12.70;99.90
4699;DHT22;33708;49.466;11.176;2023-01-06T10:34:56;12.50;99.90
4699;DHT22;33708;49.466;11.176;2023-01-06T10:37:35;12.70;99.90
4699;DHT22;33708;49.466;11.176;2023-01-06T10:40:28;12.40;99.90
4699;DHT22;33708;49.466;11.176;2023-01-06T10:42:59;12.50;99.90
4699;DHT22;33708;49.466;11.176;2023-01-06T10:47:57;12.60;99.90
4699;DHT22;33708;49.466;11.176;2023-01-06T10:50:23;12.90;99.90
4699;DHT22;33708;49.466;11.176;2023-01-06T10:52:49;13.20;99.90
4699;DHT22;33708;49.466;11.176;2023-01-06T10:55:28;12.80;99.90
4699;DHT22;33708;49.466;11.176;2023-01-06T10:58:01;12.80;99.90
4699;DHT22;33708;49.466;11.176;2023-01-06T11:00:28;13.10;99.90
4699;DHT22;33708;49.466;11.176;2023-01-06T11:03:01;12.90;99.90
4699;DHT22;33708;49.466;11.176;2023-01-06T11:05:29;12.70;99.90
4699;DHT22;33708;49.466;11.176;2023-01-06T11:08:12;12.80;99.90
4699;DHT22;33708;49.466;11.176;2023-01-06T11:10:43;12.50;99.90
4699;DHT22;33708;49.466;11.176;2023-01-06T11:15:53;12.60;99.90
4699;DHT22;33708;49.466;11.176;2023-01-06T11:18:26;12.70;99.90
4699;DHT22;33708;49.466;11.176;2023-01-06T11:23:30;12.30;99.90
4699;DHT22;33708;49.466;11.176;2023-01-06T11:28:26;12.30;99.90
4699;DHT22;33708;49.466;11.176;2023-01-06T11:30:54;12.10;99.90
4699;DHT22;33708;49.466;11.176;2023-01-06T11:33:24;11.90;99.90
4699;DHT22;33708;49.466;11.176;2023-01-06T11:35:51;11.80;99.90
4699;DHT22;33708;49.466;11.176;2023-01-06T11:38:19;11.70;99.90
4699;DHT22;33708;49.466;11.176;2023-01-06T11:40:47;11.50;99.90
4699;DHT22;33708;49.466;11.176;2023-01-06T11:43:26;11.30;99.90
4699;DHT22;33708;49.466;11.176;2023-01-06T11:45:53;11.20;99.90
4699;DHT22;33708;49.466;11.176;2023-01-06T11:48:26;11.40;99.90
4699;DHT22;33708;49.466;11.176;2023-01-06T11:50:58;11.30;99.90
4699;DHT22;33708;49.466;11.176;2023-01-06T11:53:25;11.20;99.90
4699;DHT22;33708;49.466;11.176;2023-01-06T11:56:00;11.40;99.90
4699;DHT22;33708;49.466;11.176;2023-01-06T11:59:01;11.40;99.90
4699;DHT22;33708;49.466;11.176;2023-01-06T12:04:46;11.40;99.90
4699;DHT22;33708;49.466;11.176;2023-01-06T12:06:45;11.50;99.90
4699;DHT22;33708;49.466;11.176;2023-01-06T12:09:31;11.40;99.90
4699;DHT22;33708;49.466;11.176;2023-01-06T12:12:04;11.50;99.90
4699;DHT22;33708;49.466;11.176;2023-01-06T12:14:36;11.30;99.90
4699;DHT22;33708;49.466;11.176;2023-01-06T12:22:52;11.30;99.90
4699;DHT22;33708;49.466;11.176;2023-01-06T12:25:25;11.30;99.90
4699;DHT22;33708;49.466;11.176;2023-01-06T12:28:01;11.30;99.90
4699;DHT22;33708;49.466;11.176;2023-01-06T12:30:36;11.30;99.90
4699;DHT22;33708;49.466;11.176;2023-01-06T12:33:17;11.20;99.90
4699;DHT22;33708;49.466;11.176;2023-01-06T12:35:46;11.20;99.90
4699;DHT22;33708;49.466;11.176;2023-01-06T12:41:14;11.40;99.90
4699;DHT22;33708;49.466;11.176;2023-01-06T12:43:43;11.50;99.90
4699;DHT22;33708;49.466;11.176;2023-01-06T12:46:26;11.50;99.90
4699;DHT22;33708;49.466;11.176;2023-01-06T12:49:00;11.60;99.90
4699;DHT22;33708;49.466;11.176;2023-01-06T12:51:38;11.70;99.90
4699;DHT22;33708;49.466;11.176;2023-01-06T12:54:16;11.70;99.90
4699;DHT22;33708;49.466;11.176;2023-01-06T12:59:43;11.80;99.90
4699;DHT22;33708;49.466;11.176;2023-01-06T13:08:10;11.70;99.90
4699;DHT22;33708;49.466;11.176;2023-01-06T13:10:45;11.60;99.90
4699;DHT22;33708;49.466;11.176;2023-01-06T13:15:43;11.50;99.90
4699;DHT22;33708;49.466;11.176;2023-01-06T13:23:43;11.40;99.90
4699;DHT22;33708;49.466;11.176;2023-01-06T13:37:34;11.40;99.90
4699;DHT22;33708;49.466;11.176;2023-01-06T13:45:29;11.10;99.90
4699;DHT22;33708;49.466;11.176;2023-01-06T13:47:57;11.10;99.90
4699;DHT22;33708;49.466;11.176;2023-01-06T13:50:25;11.20;99.90
4699;DHT22;33708;49.466;11.176;2023-01-06T13:52:51;11.20;99.90
4699;DHT22;33708;49.466;11.176;2023-01-06T13:57:44;11.10;99.90
4699;DHT22;33708;49.466;11.176;2023-01-06T14:05:06;11.00;99.90
4699;DHT22;33708;49.466;11.176;2023-01-06T14:07:59;11.00;99.90
4699;DHT22;33708;49.466;11.176;2023-01-06T14:10:40;11.10;99.90
4699;DHT22;33708;49.466;11.176;2023-01-06T14:13:38;11.10;99.90
4699;DHT22;33708;49.466;11.176;2023-01-06T14:16:09;11.20;99.90
4699;DHT22;33708;49.466;11.176;2023-01-06T14:18:44;11.10;99.90
4699;DHT22;33708;49.466;11.176;2023-01-06T14:24:00;11.10;99.90
4699;DHT22;33708;49.466;11.176;2023-01-06T14:26:45;11.10;99.90
4699;DHT22;33708;49.466;11.176;2023-01-06T14:34:34;10.90;99.90
4699;DHT22;33708;49.466;11.176;2023-01-06T14:37:01;11.00;99.90
4699;DHT22;33708;49.466;11.176;2023-01-06T14:39:29;10.90;99.90
4699;DHT22;33708;49.466;11.176;2023-01-06T14:42:01;10.80;99.90
4699;DHT22;33708;49.466;11.176;2023-01-06T14:44:51;10.90;99.90
4699;DHT22;33708;49.466;11.176;2023-01-06T14:49:58;10.90;99.90
4699;DHT22;33708;49.466;11.176;2023-01-06T14:52:38;10.80;99.90
4699;DHT22;33708;49.466;11.176;2023-01-06T14:55:12;10.70;99.90
4699;DHT22;33708;49.466;11.176;2023-01-06T14:57:41;10.80;99.90
4699;DHT22;33708;49.466;11.176;2023-01-06T15:02:47;10.90;99.90
4699;DHT22;33708;49.466;11.176;2023-01-06T15:05:35;10.80;99.90
4699;DHT22;33708;49.466;11.176;2023-01-06T15:13:30;10.70;99.90
4699;DHT22;33708;49.466;11.176;2023-01-06T15:16:03;10.80;99.90
4699;DHT22;33708;49.466;11.176;2023-01-06T15:18:32;10.70;99.90
4699;DHT22;33708;49.466;11.176;2023-01-06T15:20:58;10.70;99.90
4699;DHT22;33708;49.466;11.176;2023-01-06T15:23:25;10.70;99.90
4699;DHT22;33708;49.466;11.176;2023-01-06T15:25:51;10.80;99.90
4699;DHT22;33708;49.466;11.176;2023-01-06T15:28:31;10.80;99.90
4699;DHT22;33708;49.466;11.176;2023-01-06T15:30:58;10.70;99.90
4699;DHT22;33708;49.466;11.176;2023-01-06T15:33:29;10.70;99.90
4699;DHT22;33708;49.466;11.176;2023-01-06T15:35:57;10.70;99.90
4699;DHT22;33708;49.466;11.176;2023-01-06T15:38:27;10.70;99.90
4699;DHT22;33708;49.466;11.176;2023-01-06T15:40:54;10.70;99.90
4699;DHT22;33708;49.466;11.176;2023-01-06T15:43:22;10.60;99.90
4699;DHT22;33708;49.466;11.176;2023-01-06T15:46:15;10.60;99.90
4699;DHT22;33708;49.466;11.176;2023-01-06T15:48:44;10.60;99.90
4699;DHT22;33708;49.466;11.176;2023-01-06T15:51:14;10.60;99.90
4699;DHT22;33708;49.466;11.176;2023-01-06T15:53:40;10.60;99.90
4699;DHT22;33708;49.466;11.176;2023-01-06T15:56:08;10.60;99.90
4699;DHT22;33708;49.466;11.176;2023-01-06T15:58:40;10.70;99.90
4699;DHT22;33708;49.466;11.176;2023-01-06T16:01:11;10.60;99.90
4699;DHT22;33708;49.466;11.176;2023-01-06T16:03:48;10.70;99.90
4699;DHT22;33708;49.466;11.176;2023-01-06T16:06:29;10.60;99.90
4699;DHT22;33708;49.466;11.176;2023-01-06T16:12:13;10.60;99.90
4699;DHT22;33708;49.466;11.176;2023-01-06T16:14:39;10.70;99.90
4699;DHT22;33708;49.466;11.176;2023-01-06T16:17:23;10.60;99.90
4699;DHT22;33708;49.466;11.176;2023-01-06T16:19:54;10.60;99.90
4699;DHT22;33708;49.466;11.176;2023-01-06T16:22:33;10.60;99.90
4699;DHT22;33708;49.466;11.176;2023-01-06T16:25:24;10.60;99.90
4699;DHT22;33708;49.466;11.176;2023-01-06T16:27:53;10.70;99.90
4699;DHT22;33708;49.466;11.176;2023-01-06T16:30:25;10.80;99.90
4699;DHT22;33708;49.466;11.176;2023-01-06T16:32:53;10.70;99.90
4699;DHT22;33708;49.466;11.176;2023-01-06T16:35:21;10.70;99.90
4699;DHT22;33708;49.466;11.176;2023-01-06T16:37:47;10.70;99.90
4699;DHT22;33708;49.466;11.176;2023-01-06T16:40:14;10.70;99.90
4699;DHT22;33708;49.466;11.176;2023-01-06T16:42:41;10.60;99.90
4699;DHT22;33708;49.466;11.176;2023-01-06T16:47:35;10.70;99.90
4699;DHT22;33708;49.466;11.176;2023-01-06T16:50:01;10.60;99.90
4699;DHT22;33708;49.466;11.176;2023-01-06T16:52:35;10.70;99.90
4699;DHT22;33708;49.466;11.176;2023-01-06T16:55:00;10.70;99.90
4699;DHT22;33708;49.466;11.176;2023-01-06T16:57:26;10.50;99.90
4699;DHT22;33708;49.466;11.176;2023-01-06T16:59:52;10.60;99.90
4699;DHT22;33708;49.466;11.176;2023-01-06T17:02:18;10.70;99.90
4699;DHT22;33708;49.466;11.176;2023-01-06T17:04:45;10.70;99.90
4699;DHT22;33708;49.466;11.176;2023-01-06T17:07:14;10.70;99.90
4699;DHT22;33708;49.466;11.176;2023-01-06T17:09:41;10.70;99.90
4699;DHT22;33708;49.466;11.176;2023-01-06T17:12:14;10.80;99.90
4699;DHT22;33708;49.466;11.176;2023-01-06T17:14:59;10.70;99.90
4699;DHT22;33708;49.466;11.176;2023-01-06T17:17:25;10.60;99.90
4699;DHT22;33708;49.466;11.176;2023-01-06T17:19:51;10.60;99.90
4699;DHT22;33708;49.466;11.176;2023-01-06T17:22:29;10.60;99.90
4699;DHT22;33708;49.466;11.176;2023-01-06T17:24:56;10.50;99.90
4699;DHT22;33708;49.466;11.176;2023-01-06T17:27:24;10.60;99.90
4699;DHT22;33708;49.466;11.176;2023-01-06T17:29:51;10.50;99.90
4699;DHT22;33708;49.466;11.176;2023-01-06T17:32:31;10.50;99.90
4699;DHT22;33708;49.466;11.176;2023-01-06T17:34:57;10.50;99.90
4699;DHT22;33708;49.466;11.176;2023-01-06T17:37:25;10.60;99.90
4699;DHT22;33708;49.466;11.176;2023-01-06T17:39:52;10.50;99.90
4699;DHT22;33708;49.466;11.176;2023-01-06T17:42:26;10.50;99.90
4699;DHT22;33708;49.466;11.176;2023-01-06T17:44:57;10.60;99.90
4699;DHT22;33708;49.466;11.176;2023-01-06T17:47:27;10.50;99.90
4699;DHT22;33708;49.466;11.176;2023-01-06T17:49:55;10.60;99.90
4699;DHT22;33708;49.466;11.176;2023-01-06T17:52:38;10.60;99.90
4699;DHT22;33708;49.466;11.176;2023-01-06T17:57:54;10.70;99.90
4699;DHT22;33708;49.466;11.176;2023-01-06T18:00:33;10.60;99.90
4699;DHT22;33708;49.466;11.176;2023-01-06T18:03:04;10.60;99.90
4699;DHT22;33708;49.466;11.176;2023-01-06T18:10:31;10.60;99.90
4699;DHT22;33708;49.466;11.176;2023-01-06T18:13:08;10.60;99.90
4699;DHT22;33708;49.466;11.176;2023-01-06T18:15:36;10.60;99.90
4699;DHT22;33708;49.466;11.176;2023-01-06T18:18:15;10.60;99.90
4699;DHT22;33708;49.466;11.176;2023-01-06T18:20:58;10.50;99.90
4699;DHT22;33708;49.466;11.176;2023-01-06T18:23:25;10.50;99.90
4699;DHT22;33708;49.466;11.176;2023-01-06T18:25:55;10.60;99.90